sensor_id;sensor_type;location;lat;lon;timestamp;P1;durP1;ratioP1;P2;durP2;ratioP2
51901;SDS011;37929;53.218;6.548;2023-02-13T00:02:23;18.05;;;9.52;;
51901;SDS011;37929;53.218;6.548;2023-02-13T00:04:48;14.88;;;8.98;;
51901;SDS011;37929;53.218;6.548;2023-02-13T00:07:14;19.17;;;10.73;;
51901;SDS011;37929;53.218;6.548;2023-02-13T00:09:40;17.58;;;10.57;;
51901;SDS011;37929;53.218;6.548;2023-02-13T00:12:06;18.13;;;10.30;;
51901;SDS011;37929;53.218;6.548;2023-02-13T00:14:36;19.55;;;11.00;;
51901;SDS011;37929;53.218;6.548;2023-02-13T00:17:02;18.88;;;11.05;;
51901;SDS011;37929;53.218;6.548;2023-02-13T00:19:29;17.02;;;9.45;;
51901;SDS011;37929;53.218;6.548;2023-02-13T00:21:55;16.60;;;10.60;;
51901;SDS011;37929;53.218;6.548;2023-02-13T00:24:20;14.75;;;8.90;;
51901;SDS011;37929;53.218;6.548;2023-02-13T00:26:46;19.85;;;10.55;;
51901;SDS011;37929;53.218;6.548;2023-02-13T00:29:12;17.27;;;9.88;;
51901;SDS011;37929;53.218;6.548;2023-02-13T00:31:38;17.95;;;10.45;;
51901;SDS011;37929;53.218;6.548;2023-02-13T00:34:04;19.60;;;11.15;;
51901;SDS011;37929;53.218;6.548;2023-02-13T00:36:30;19.80;;;11.52;;
51901;SDS011;37929;53.218;6.548;2023-02-13T00:38:56;20.05;;;10.75;;
51901;SDS011;37929;53.218;6.548;2023-02-13T00:41:22;18.77;;;10.75;;
51901;SDS011;37929;53.218;6.548;2023-02-13T00:43:48;18.17;;;10.00;;
51901;SDS011;37929;53.218;6.548;2023-02-13T00:46:14;16.98;;;10.18;;
51901;SDS011;37929;53.218;6.548;2023-02-13T00:48:41;20.40;;;11.68;;
51901;SDS011;37929;53.218;6.548;2023-02-13T00:51:07;22.58;;;11.48;;
51901;SDS011;37929;53.218;6.548;2023-02-13T00:53:33;17.80;;;10.13;;
51901;SDS011;37929;53.218;6.548;2023-02-13T00:56:00;20.05;;;11.18;;
51901;SDS011;37929;53.218;6.548;2023-02-13T00:58:26;19.65;;;9.85;;
51901;SDS011;37929;53.218;6.548;2023-02-13T01:00:52;17.58;;;10.10;;
51901;SDS011;37929;53.218;6.548;2023-02-13T01:03:19;15.55;;;9.18;;
51901;SDS011;37929;53.218;6.548;2023-02-13T01:05:46;21.45;;;11.40;;
51901;SDS011;37929;53.218;6.548;2023-02-13T01:08:13;21.58;;;11.45;;
51901;SDS011;37929;53.218;6.548;2023-02-13T01:10:40;19.63;;;10.88;;
51901;SDS011;37929;53.218;6.548;2023-02-13T01:13:06;18.45;;;10.00;;
51901;SDS011;37929;53.218;6.548;2023-02-13T01:15:33;20.92;;;11.43;;
51901;SDS011;37929;53.218;6.548;2023-02-13T01:17:59;17.98;;;10.60;;
51901;SDS011;37929;53.218;6.548;2023-02-13T01:20:25;17.73;;;9.38;;
51901;SDS011;37929;53.218;6.548;2023-02-13T01:22:52;19.17;;;10.57;;
51901;SDS011;37929;53.218;6.548;2023-02-13T01:25:18;17.13;;;9.75;;
51901;SDS011;37929;53.218;6.548;2023-02-13T01:27:45;18.20;;;10.65;;
51901;SDS011;37929;53.218;6.548;2023-02-13T01:30:11;17.52;;;10.10;;
51901;SDS011;37929;53.218;6.548;2023-02-13T01:32:39;20.38;;;11.70;;
51901;SDS011;37929;53.218;6.548;2023-02-13T01:35:05;18.15;;;10.55;;
51901;SDS011;37929;53.218;6.548;2023-02-13T01:37:32;18.98;;;10.05;;
51901;SDS011;37929;53.218;6.548;2023-02-13T01:39:58;21.05;;;10.40;;
51901;SDS011;37929;53.218;6.548;2023-02-13T01:42:25;20.50;;;10.75;;
51901;SDS011;37929;53.218;6.548;2023-02-13T01:44:53;18.98;;;10.65;;
51901;SDS011;37929;53.218;6.548;2023-02-13T01:50:10;20.92;;;11.55;;
51901;SDS011;37929;53.218;6.548;2023-02-13T01:52:50;17.50;;;9.88;;
51901;SDS011;37929;53.218;6.548;2023-02-13T01:55:19;18.38;;;10.32;;
51901;SDS011;37929;53.218;6.548;2023-02-13T01:57:48;16.98;;;9.63;;
51901;SDS011;37929;53.218;6.548;2023-02-13T02:00:22;19.67;;;10.48;;
51901;SDS011;37929;53.218;6.548;2023-02-13T02:02:59;20.98;;;11.43;;
51901;SDS011;37929;53.218;6.548;2023-02-13T02:05:35;19.77;;;11.30;;
51901;SDS011;37929;53.218;6.548;2023-02-13T02:08:01;18.38;;;9.63;;
51901;SDS011;37929;53.218;6.548;2023-02-13T02:10:32;17.05;;;9.68;;
51901;SDS011;37929;53.218;6.548;2023-02-13T02:13:09;18.77;;;10.07;;
51901;SDS011;37929;53.218;6.548;2023-02-13T02:15:41;18.90;;;10.63;;
51901;SDS011;37929;53.218;6.548;2023-02-13T02:18:14;19.90;;;10.05;;
51901;SDS011;37929;53.218;6.548;2023-02-13T02:23:46;20.08;;;10.68;;
51901;SDS011;37929;53.218;6.548;2023-02-13T02:26:38;17.95;;;10.48;;
51901;SDS011;37929;53.218;6.548;2023-02-13T02:35:22;17.33;;;10.15;;
51901;SDS011;37929;53.218;6.548;2023-02-13T02:40:46;17.58;;;9.60;;
51901;SDS011;37929;53.218;6.548;2023-02-13T02:48:53;20.92;;;11.32;;
51901;SDS011;37929;53.218;6.548;2023-02-13T02:57:42;20.40;;;9.98;;
51901;SDS011;37929;53.218;6.548;2023-02-13T03:00:41;17.00;;;9.23;;
51901;SDS011;37929;53.218;6.548;2023-02-13T03:03:26;20.17;;;10.77;;
51901;SDS011;37929;53.218;6.548;2023-02-13T03:06:14;17.35;;;9.35;;
51901;SDS011;37929;53.218;6.548;2023-02-13T03:08:51;17.02;;;9.77;;
51901;SDS011;37929;53.218;6.548;2023-02-13T03:11:37;18.23;;;9.48;;
51901;SDS011;37929;53.218;6.548;2023-02-13T03:14:24;16.60;;;9.02;;
51901;SDS011;37929;53.218;6.548;2023-02-13T03:16:52;18.85;;;10.13;;
51901;SDS011;37929;53.218;6.548;2023-02-13T03:19:53;18.13;;;9.82;;
51901;SDS011;37929;53.218;6.548;2023-02-13T03:28:11;20.83;;;10.88;;
51901;SDS011;37929;53.218;6.548;2023-02-13T03:33:42;18.55;;;9.82;;
51901;SDS011;37929;53.218;6.548;2023-02-13T03:36:48;20.67;;;10.32;;
51901;SDS011;37929;53.218;6.548;2023-02-13T03:39:55;17.70;;;9.82;;
51901;SDS011;37929;53.218;6.548;2023-02-13T03:45:02;18.80;;;9.52;;
51901;SDS011;37929;53.218;6.548;2023-02-13T03:47:54;19.05;;;10.07;;
51901;SDS011;37929;53.218;6.548;2023-02-13T03:50:23;17.58;;;9.88;;
51901;SDS011;37929;53.218;6.548;2023-02-13T03:52:52;17.77;;;10.20;;
51901;SDS011;37929;53.218;6.548;2023-02-13T03:55:34;17.27;;;10.10;;
51901;SDS011;37929;53.218;6.548;2023-02-13T03:58:31;18.73;;;10.10;;
51901;SDS011;37929;53.218;6.548;2023-02-13T04:01:21;20.75;;;11.13;;
51901;SDS011;37929;53.218;6.548;2023-02-13T04:06:49;16.85;;;9.30;;
51901;SDS011;37929;53.218;6.548;2023-02-13T04:09:21;18.77;;;9.57;;
51901;SDS011;37929;53.218;6.548;2023-02-13T04:11:54;21.98;;;10.40;;
51901;SDS011;37929;53.218;6.548;2023-02-13T04:14:24;17.27;;;9.85;;
51901;SDS011;37929;53.218;6.548;2023-02-13T04:19:41;19.95;;;10.25;;
51901;SDS011;37929;53.218;6.548;2023-02-13T04:22:07;16.83;;;9.50;;
51901;SDS011;37929;53.218;6.548;2023-02-13T04:24:35;17.10;;;9.15;;
51901;SDS011;37929;53.218;6.548;2023-02-13T04:27:01;16.85;;;9.63;;
51901;SDS011;37929;53.218;6.548;2023-02-13T04:29:30;16.73;;;9.50;;
51901;SDS011;37929;53.218;6.548;2023-02-13T04:31:55;17.45;;;9.48;;
51901;SDS011;37929;53.218;6.548;2023-02-13T04:34:21;18.88;;;10.27;;
51901;SDS011;37929;53.218;6.548;2023-02-13T04:36:47;19.08;;;10.68;;
51901;SDS011;37929;53.218;6.548;2023-02-13T04:39:13;17.75;;;10.35;;
51901;SDS011;37929;53.218;6.548;2023-02-13T04:41:39;20.35;;;10.10;;
51901;SDS011;37929;53.218;6.548;2023-02-13T04:44:05;20.50;;;11.15;;
51901;SDS011;37929;53.218;6.548;2023-02-13T04:46:31;20.15;;;10.20;;
51901;SDS011;37929;53.218;6.548;2023-02-13T04:48:56;20.55;;;11.93;;
51901;SDS011;37929;53.218;6.548;2023-02-13T04:51:22;18.55;;;9.93;;
51901;SDS011;37929;53.218;6.548;2023-02-13T04:53:48;16.17;;;9.52;;
51901;SDS011;37929;53.218;6.548;2023-02-13T04:56:14;19.05;;;10.02;;
51901;SDS011;37929;53.218;6.548;2023-02-13T04:58:39;15.95;;;8.82;;
51901;SDS011;37929;53.218;6.548;2023-02-13T05:01:12;17.95;;;9.80;;
51901;SDS011;37929;53.218;6.548;2023-02-13T05:03:40;18.23;;;10.20;;
51901;SDS011;37929;53.218;6.548;2023-02-13T05:06:06;17.73;;;10.48;;
51901;SDS011;37929;53.218;6.548;2023-02-13T05:08:32;23.48;;;11.40;;
51901;SDS011;37929;53.218;6.548;2023-02-13T05:10:58;17.88;;;9.80;;
51901;SDS011;37929;53.218;6.548;2023-02-13T05:13:24;21.13;;;10.90;;
51901;SDS011;37929;53.218;6.548;2023-02-13T05:15:50;20.55;;;11.82;;
51901;SDS011;37929;53.218;6.548;2023-02-13T05:18:17;21.42;;;11.05;;
51901;SDS011;37929;53.218;6.548;2023-02-13T05:20:43;18.38;;;10.15;;
51901;SDS011;37929;53.218;6.548;2023-02-13T05:23:12;18.95;;;10.88;;
51901;SDS011;37929;53.218;6.548;2023-02-13T05:25:47;19.27;;;9.90;;
51901;SDS011;37929;53.218;6.548;2023-02-13T05:28:14;19.05;;;10.63;;
51901;SDS011;37929;53.218;6.548;2023-02-13T05:30:59;16.75;;;9.35;;
51901;SDS011;37929;53.218;6.548;2023-02-13T05:33:25;20.20;;;10.35;;
51901;SDS011;37929;53.218;6.548;2023-02-13T05:35:51;20.65;;;10.85;;
51901;SDS011;37929;53.218;6.548;2023-02-13T05:38:17;22.40;;;12.88;;
51901;SDS011;37929;53.218;6.548;2023-02-13T05:40:43;18.92;;;10.68;;
51901;SDS011;37929;53.218;6.548;2023-02-13T05:43:09;19.42;;;10.52;;
51901;SDS011;37929;53.218;6.548;2023-02-13T05:45:34;16.80;;;9.60;;
51901;SDS011;37929;53.218;6.548;2023-02-13T05:48:00;21.48;;;10.73;;
51901;SDS011;37929;53.218;6.548;2023-02-13T05:50:26;20.50;;;11.15;;
51901;SDS011;37929;53.218;6.548;2023-02-13T05:52:51;21.17;;;10.60;;
51901;SDS011;37929;53.218;6.548;2023-02-13T05:55:17;21.55;;;11.05;;
51901;SDS011;37929;53.218;6.548;2023-02-13T05:57:43;18.23;;;10.15;;
51901;SDS011;37929;53.218;6.548;2023-02-13T06:00:09;19.48;;;10.85;;
51901;SDS011;37929;53.218;6.548;2023-02-13T06:02:35;19.92;;;11.18;;
51901;SDS011;37929;53.218;6.548;2023-02-13T06:05:01;17.00;;;9.55;;
51901;SDS011;37929;53.218;6.548;2023-02-13T06:07:27;22.50;;;11.60;;
51901;SDS011;37929;53.218;6.548;2023-02-13T06:09:52;18.25;;;9.98;;
51901;SDS011;37929;53.218;6.548;2023-02-13T06:12:18;18.88;;;10.98;;
51901;SDS011;37929;53.218;6.548;2023-02-13T06:14:44;20.58;;;10.88;;
51901;SDS011;37929;53.218;6.548;2023-02-13T06:17:10;18.88;;;10.63;;
51901;SDS011;37929;53.218;6.548;2023-02-13T06:19:35;18.45;;;10.20;;
51901;SDS011;37929;53.218;6.548;2023-02-13T06:22:01;20.20;;;10.13;;
51901;SDS011;37929;53.218;6.548;2023-02-13T06:24:27;21.48;;;11.45;;
51901;SDS011;37929;53.218;6.548;2023-02-13T06:26:53;17.10;;;10.05;;
51901;SDS011;37929;53.218;6.548;2023-02-13T06:29:18;19.30;;;9.90;;
51901;SDS011;37929;53.218;6.548;2023-02-13T06:31:44;20.73;;;10.77;;
51901;SDS011;37929;53.218;6.548;2023-02-13T06:34:10;18.98;;;10.18;;
51901;SDS011;37929;53.218;6.548;2023-02-13T06:36:36;18.88;;;10.32;;
51901;SDS011;37929;53.218;6.548;2023-02-13T06:39:02;18.38;;;9.93;;
51901;SDS011;37929;53.218;6.548;2023-02-13T06:41:28;20.42;;;10.93;;
51901;SDS011;37929;53.218;6.548;2023-02-13T06:43:54;25.17;;;12.20;;
51901;SDS011;37929;53.218;6.548;2023-02-13T06:46:19;18.40;;;9.93;;
51901;SDS011;37929;53.218;6.548;2023-02-13T06:48:45;18.55;;;9.77;;
51901;SDS011;37929;53.218;6.548;2023-02-13T06:51:11;21.48;;;10.57;;
51901;SDS011;37929;53.218;6.548;2023-02-13T06:53:37;20.88;;;10.43;;
51901;SDS011;37929;53.218;6.548;2023-02-13T06:56:04;21.05;;;10.68;;
51901;SDS011;37929;53.218;6.548;2023-02-13T06:58:33;20.75;;;10.13;;
51901;SDS011;37929;53.218;6.548;2023-02-13T07:00:59;20.38;;;11.40;;
51901;SDS011;37929;53.218;6.548;2023-02-13T07:03:25;22.48;;;12.15;;
51901;SDS011;37929;53.218;6.548;2023-02-13T07:05:51;19.63;;;11.00;;
51901;SDS011;37929;53.218;6.548;2023-02-13T07:08:17;20.75;;;11.25;;
51901;SDS011;37929;53.218;6.548;2023-02-13T07:10:43;19.30;;;10.40;;
51901;SDS011;37929;53.218;6.548;2023-02-13T07:13:09;20.10;;;11.07;;
51901;SDS011;37929;53.218;6.548;2023-02-13T07:15:36;19.90;;;10.93;;
51901;SDS011;37929;53.218;6.548;2023-02-13T07:18:02;22.30;;;11.50;;
51901;SDS011;37929;53.218;6.548;2023-02-13T07:20:29;19.23;;;11.57;;
51901;SDS011;37929;53.218;6.548;2023-02-13T07:22:58;22.27;;;11.35;;
51901;SDS011;37929;53.218;6.548;2023-02-13T07:25:25;20.67;;;11.07;;
51901;SDS011;37929;53.218;6.548;2023-02-13T07:27:51;23.13;;;11.30;;
51901;SDS011;37929;53.218;6.548;2023-02-13T07:30:17;21.33;;;11.68;;
51901;SDS011;37929;53.218;6.548;2023-02-13T07:32:42;20.25;;;11.18;;
51901;SDS011;37929;53.218;6.548;2023-02-13T07:35:08;22.08;;;11.40;;
51901;SDS011;37929;53.218;6.548;2023-02-13T07:37:34;21.40;;;10.88;;
51901;SDS011;37929;53.218;6.548;2023-02-13T07:40:03;19.10;;;10.68;;
51901;SDS011;37929;53.218;6.548;2023-02-13T07:42:32;19.92;;;11.02;;
51901;SDS011;37929;53.218;6.548;2023-02-13T07:44:58;20.10;;;11.00;;
51901;SDS011;37929;53.218;6.548;2023-02-13T07:47:25;18.63;;;10.70;;
51901;SDS011;37929;53.218;6.548;2023-02-13T07:49:50;21.10;;;11.23;;
51901;SDS011;37929;53.218;6.548;2023-02-13T07:52:16;18.88;;;9.27;;
51901;SDS011;37929;53.218;6.548;2023-02-13T07:54:42;19.85;;;10.75;;
51901;SDS011;37929;53.218;6.548;2023-02-13T07:57:14;20.10;;;11.05;;
51901;SDS011;37929;53.218;6.548;2023-02-13T07:59:40;23.73;;;11.38;;
51901;SDS011;37929;53.218;6.548;2023-02-13T08:02:12;20.88;;;11.10;;
51901;SDS011;37929;53.218;6.548;2023-02-13T08:04:39;19.63;;;10.48;;
51901;SDS011;37929;53.218;6.548;2023-02-13T08:07:05;19.50;;;10.88;;
51901;SDS011;37929;53.218;6.548;2023-02-13T08:09:31;19.58;;;10.18;;
51901;SDS011;37929;53.218;6.548;2023-02-13T08:12:15;20.17;;;10.88;;
51901;SDS011;37929;53.218;6.548;2023-02-13T08:14:41;20.65;;;10.52;;
51901;SDS011;37929;53.218;6.548;2023-02-13T08:17:24;25.20;;;11.27;;
51901;SDS011;37929;53.218;6.548;2023-02-13T08:20:06;19.73;;;10.48;;
51901;SDS011;37929;53.218;6.548;2023-02-13T08:22:35;20.85;;;10.95;;
51901;SDS011;37929;53.218;6.548;2023-02-13T08:25:01;19.42;;;10.43;;
51901;SDS011;37929;53.218;6.548;2023-02-13T08:27:28;20.50;;;10.82;;
51901;SDS011;37929;53.218;6.548;2023-02-13T08:29:57;22.42;;;11.60;;
51901;SDS011;37929;53.218;6.548;2023-02-13T08:32:23;22.75;;;10.70;;
51901;SDS011;37929;53.218;6.548;2023-02-13T08:34:50;19.10;;;10.18;;
51901;SDS011;37929;53.218;6.548;2023-02-13T08:37:16;20.00;;;9.98;;
51901;SDS011;37929;53.218;6.548;2023-02-13T08:39:44;22.00;;;10.38;;
51901;SDS011;37929;53.218;6.548;2023-02-13T08:42:13;19.52;;;10.50;;
51901;SDS011;37929;53.218;6.548;2023-02-13T08:44:39;19.85;;;10.07;;
51901;SDS011;37929;53.218;6.548;2023-02-13T08:47:06;18.90;;;10.25;;
51901;SDS011;37929;53.218;6.548;2023-02-13T08:49:32;22.38;;;10.73;;
51901;SDS011;37929;53.218;6.548;2023-02-13T08:51:59;19.48;;;10.70;;
51901;SDS011;37929;53.218;6.548;2023-02-13T08:54:26;18.98;;;9.73;;
51901;SDS011;37929;53.218;6.548;2023-02-13T08:56:52;19.42;;;9.90;;
51901;SDS011;37929;53.218;6.548;2023-02-13T08:59:19;20.88;;;10.57;;
51901;SDS011;37929;53.218;6.548;2023-02-13T09:01:45;20.80;;;11.45;;
51901;SDS011;37929;53.218;6.548;2023-02-13T09:04:11;20.33;;;10.90;;
51901;SDS011;37929;53.218;6.548;2023-02-13T09:06:40;21.30;;;10.18;;
51901;SDS011;37929;53.218;6.548;2023-02-13T09:09:06;19.60;;;11.15;;
51901;SDS011;37929;53.218;6.548;2023-02-13T09:11:32;20.80;;;11.02;;
51901;SDS011;37929;53.218;6.548;2023-02-13T09:13:58;21.33;;;10.48;;
51901;SDS011;37929;53.218;6.548;2023-02-13T09:16:24;17.80;;;9.35;;
51901;SDS011;37929;53.218;6.548;2023-02-13T09:18:50;19.85;;;10.13;;
51901;SDS011;37929;53.218;6.548;2023-02-13T09:21:16;21.20;;;11.63;;
51901;SDS011;37929;53.218;6.548;2023-02-13T09:23:43;21.15;;;10.50;;
51901;SDS011;37929;53.218;6.548;2023-02-13T09:26:11;22.38;;;10.95;;
51901;SDS011;37929;53.218;6.548;2023-02-13T09:28:38;19.67;;;10.25;;
51901;SDS011;37929;53.218;6.548;2023-02-13T09:31:08;23.60;;;12.20;;
51901;SDS011;37929;53.218;6.548;2023-02-13T09:33:39;22.35;;;11.82;;
51901;SDS011;37929;53.218;6.548;2023-02-13T09:36:06;20.80;;;10.80;;
51901;SDS011;37929;53.218;6.548;2023-02-13T09:38:34;20.73;;;11.57;;
51901;SDS011;37929;53.218;6.548;2023-02-13T09:41:01;21.23;;;11.40;;
51901;SDS011;37929;53.218;6.548;2023-02-13T09:43:45;21.73;;;10.80;;
51901;SDS011;37929;53.218;6.548;2023-02-13T09:48:45;21.83;;;11.02;;
51901;SDS011;37929;53.218;6.548;2023-02-13T09:51:17;20.75;;;10.93;;
51901;SDS011;37929;53.218;6.548;2023-02-13T09:54:03;21.30;;;11.02;;
51901;SDS011;37929;53.218;6.548;2023-02-13T10:07:48;20.42;;;11.35;;
51901;SDS011;37929;53.218;6.548;2023-02-13T10:10:27;19.83;;;9.77;;
51901;SDS011;37929;53.218;6.548;2023-02-13T10:15:52;20.70;;;11.13;;
51901;SDS011;37929;53.218;6.548;2023-02-13T10:18:49;22.17;;;11.02;;
51901;SDS011;37929;53.218;6.548;2023-02-13T10:21:20;22.83;;;12.63;;
51901;SDS011;37929;53.218;6.548;2023-02-13T10:24:01;21.80;;;11.23;;
51901;SDS011;37929;53.218;6.548;2023-02-13T10:26:35;20.92;;;10.75;;
51901;SDS011;37929;53.218;6.548;2023-02-13T10:32:13;28.85;;;13.77;;
51901;SDS011;37929;53.218;6.548;2023-02-13T10:34:44;19.90;;;10.85;;
51901;SDS011;37929;53.218;6.548;2023-02-13T10:37:15;18.42;;;9.93;;
51901;SDS011;37929;53.218;6.548;2023-02-13T10:39:44;20.33;;;10.38;;
51901;SDS011;37929;53.218;6.548;2023-02-13T10:52:43;19.52;;;10.32;;
51901;SDS011;37929;53.218;6.548;2023-02-13T10:55:43;19.50;;;11.00;;
51901;SDS011;37929;53.218;6.548;2023-02-13T11:01:18;20.55;;;10.50;;
51901;SDS011;37929;53.218;6.548;2023-02-13T11:04:03;21.17;;;10.48;;
51901;SDS011;37929;53.218;6.548;2023-02-13T11:06:32;21.42;;;10.68;;
51901;SDS011;37929;53.218;6.548;2023-02-13T11:09:00;20.73;;;10.85;;
51901;SDS011;37929;53.218;6.548;2023-02-13T11:11:39;21.60;;;10.65;;
51901;SDS011;37929;53.218;6.548;2023-02-13T11:14:09;21.05;;;11.18;;
51901;SDS011;37929;53.218;6.548;2023-02-13T11:16:45;19.42;;;10.55;;
51901;SDS011;37929;53.218;6.548;2023-02-13T11:19:25;22.27;;;12.05;;
51901;SDS011;37929;53.218;6.548;2023-02-13T11:22:03;21.23;;;12.15;;
51901;SDS011;37929;53.218;6.548;2023-02-13T11:24:32;21.23;;;10.73;;
51901;SDS011;37929;53.218;6.548;2023-02-13T11:27:09;23.65;;;12.52;;
51901;SDS011;37929;53.218;6.548;2023-02-13T11:29:55;20.35;;;11.00;;
51901;SDS011;37929;53.218;6.548;2023-02-13T11:32:23;24.10;;;11.63;;
51901;SDS011;37929;53.218;6.548;2023-02-13T11:34:54;23.40;;;10.95;;
51901;SDS011;37929;53.218;6.548;2023-02-13T11:39:49;23.35;;;12.30;;
51901;SDS011;37929;53.218;6.548;2023-02-13T11:42:20;19.70;;;10.95;;
51901;SDS011;37929;53.218;6.548;2023-02-13T11:44:50;19.83;;;10.98;;
51901;SDS011;37929;53.218;6.548;2023-02-13T11:50:20;19.25;;;9.02;;
51901;SDS011;37929;53.218;6.548;2023-02-13T11:53:03;22.67;;;10.67;;
51901;SDS011;37929;53.218;6.548;2023-02-13T11:55:34;19.92;;;10.27;;
51901;SDS011;37929;53.218;6.548;2023-02-13T11:58:25;21.52;;;10.23;;
51901;SDS011;37929;53.218;6.548;2023-02-13T12:01:06;20.20;;;10.43;;
51901;SDS011;37929;53.218;6.548;2023-02-13T12:03:56;21.30;;;10.45;;
51901;SDS011;37929;53.218;6.548;2023-02-13T12:06:27;19.42;;;11.25;;
51901;SDS011;37929;53.218;6.548;2023-02-13T12:08:53;22.35;;;9.88;;
51901;SDS011;37929;53.218;6.548;2023-02-13T12:11:21;21.70;;;11.38;;
51901;SDS011;37929;53.218;6.548;2023-02-13T12:13:52;24.80;;;11.85;;
51901;SDS011;37929;53.218;6.548;2023-02-13T12:16:22;19.10;;;10.15;;
51901;SDS011;37929;53.218;6.548;2023-02-13T12:43:17;19.30;;;10.15;;
51901;SDS011;37929;53.218;6.548;2023-02-13T12:51:21;21.83;;;10.93;;
51901;SDS011;37929;53.218;6.548;2023-02-13T12:56:51;21.02;;;10.88;;
51901;SDS011;37929;53.218;6.548;2023-02-13T13:13:51;18.92;;;10.07;;
51901;SDS011;37929;53.218;6.548;2023-02-13T13:16:27;20.75;;;10.82;;
51901;SDS011;37929;53.218;6.548;2023-02-13T13:22:45;22.27;;;10.73;;
51901;SDS011;37929;53.218;6.548;2023-02-13T13:25:17;21.15;;;11.23;;
51901;SDS011;37929;53.218;6.548;2023-02-13T13:28:11;20.58;;;10.63;;
51901;SDS011;37929;53.218;6.548;2023-02-13T13:30:42;21.85;;;11.10;;
51901;SDS011;37929;53.218;6.548;2023-02-13T13:33:19;19.10;;;10.93;;
51901;SDS011;37929;53.218;6.548;2023-02-13T13:38:45;21.77;;;10.57;;
51901;SDS011;37929;53.218;6.548;2023-02-13T13:41:22;20.52;;;10.73;;
51901;SDS011;37929;53.218;6.548;2023-02-13T13:46:36;17.80;;;10.27;;
51901;SDS011;37929;53.218;6.548;2023-02-13T13:52:35;20.20;;;10.55;;
51901;SDS011;37929;53.218;6.548;2023-02-13T13:55:04;22.15;;;11.38;;
51901;SDS011;37929;53.218;6.548;2023-02-13T14:15:53;20.92;;;10.77;;
51901;SDS011;37929;53.218;6.548;2023-02-13T14:25:49;25.67;;;12.25;;
51901;SDS011;37929;53.218;6.548;2023-02-13T14:28:33;23.77;;;11.43;;
51901;SDS011;37929;53.218;6.548;2023-02-13T14:31:04;21.40;;;11.38;;
51901;SDS011;37929;53.218;6.548;2023-02-13T14:34:00;20.08;;;10.52;;
51901;SDS011;37929;53.218;6.548;2023-02-13T14:36:41;21.98;;;11.80;;
51901;SDS011;37929;53.218;6.548;2023-02-13T14:44:21;25.33;;;13.10;;
51901;SDS011;37929;53.218;6.548;2023-02-13T14:47:13;24.80;;;12.70;;
51901;SDS011;37929;53.218;6.548;2023-02-13T14:49:48;23.13;;;12.80;;
51901;SDS011;37929;53.218;6.548;2023-02-13T14:52:20;21.77;;;11.30;;
51901;SDS011;37929;53.218;6.548;2023-02-13T14:54:54;21.73;;;12.80;;
51901;SDS011;37929;53.218;6.548;2023-02-13T14:57:28;25.52;;;13.32;;
51901;SDS011;37929;53.218;6.548;2023-02-13T15:00:00;24.83;;;14.30;;
51901;SDS011;37929;53.218;6.548;2023-02-13T15:02:58;26.38;;;12.68;;
51901;SDS011;37929;53.218;6.548;2023-02-13T15:05:31;25.42;;;13.43;;
51901;SDS011;37929;53.218;6.548;2023-02-13T15:08:02;26.60;;;13.98;;
51901;SDS011;37929;53.218;6.548;2023-02-13T15:10:45;21.83;;;11.63;;
51901;SDS011;37929;53.218;6.548;2023-02-13T15:15:46;23.90;;;12.80;;
51901;SDS011;37929;53.218;6.548;2023-02-13T15:18:26;22.73;;;13.55;;
51901;SDS011;37929;53.218;6.548;2023-02-13T15:20:55;22.80;;;12.00;;
51901;SDS011;37929;53.218;6.548;2023-02-13T15:23:25;25.40;;;13.25;;
51901;SDS011;37929;53.218;6.548;2023-02-13T15:26:05;24.88;;;12.65;;
51901;SDS011;37929;53.218;6.548;2023-02-13T15:28:33;23.48;;;12.10;;
51901;SDS011;37929;53.218;6.548;2023-02-13T15:33:42;22.88;;;12.93;;
51901;SDS011;37929;53.218;6.548;2023-02-13T15:36:15;22.88;;;12.05;;
51901;SDS011;37929;53.218;6.548;2023-02-13T15:38:58;24.40;;;12.95;;
51901;SDS011;37929;53.218;6.548;2023-02-13T15:41:26;25.75;;;13.68;;
51901;SDS011;37929;53.218;6.548;2023-02-13T15:43:57;24.65;;;14.10;;
51901;SDS011;37929;53.218;6.548;2023-02-13T15:48:52;23.05;;;12.50;;
51901;SDS011;37929;53.218;6.548;2023-02-13T15:51:20;23.10;;;12.68;;
51901;SDS011;37929;53.218;6.548;2023-02-13T15:56:17;23.35;;;12.10;;
51901;SDS011;37929;53.218;6.548;2023-02-13T15:58:43;25.15;;;12.93;;
51901;SDS011;37929;53.218;6.548;2023-02-13T16:01:09;23.10;;;12.77;;
51901;SDS011;37929;53.218;6.548;2023-02-13T16:03:36;24.15;;;13.40;;
51901;SDS011;37929;53.218;6.548;2023-02-13T16:06:04;24.92;;;13.65;;
51901;SDS011;37929;53.218;6.548;2023-02-13T16:08:35;25.95;;;13.50;;
51901;SDS011;37929;53.218;6.548;2023-02-13T16:16:54;25.33;;;13.05;;
51901;SDS011;37929;53.218;6.548;2023-02-13T16:22:05;21.90;;;11.75;;
51901;SDS011;37929;53.218;6.548;2023-02-13T16:24:43;23.90;;;12.63;;
51901;SDS011;37929;53.218;6.548;2023-02-13T16:27:14;21.13;;;12.05;;
51901;SDS011;37929;53.218;6.548;2023-02-13T16:29:46;23.50;;;13.60;;
51901;SDS011;37929;53.218;6.548;2023-02-13T16:32:22;25.38;;;13.18;;
51901;SDS011;37929;53.218;6.548;2023-02-13T16:34:54;24.73;;;12.70;;
51901;SDS011;37929;53.218;6.548;2023-02-13T16:37:31;24.55;;;12.50;;
51901;SDS011;37929;53.218;6.548;2023-02-13T16:40:43;23.23;;;12.82;;
51901;SDS011;37929;53.218;6.548;2023-02-13T16:48:39;25.13;;;13.00;;
51901;SDS011;37929;53.218;6.548;2023-02-13T16:51:08;24.48;;;13.27;;
51901;SDS011;37929;53.218;6.548;2023-02-13T16:53:39;22.60;;;12.85;;
51901;SDS011;37929;53.218;6.548;2023-02-13T16:56:06;25.63;;;12.90;;
51901;SDS011;37929;53.218;6.548;2023-02-13T16:58:33;25.20;;;13.07;;
51901;SDS011;37929;53.218;6.548;2023-02-13T17:01:00;26.17;;;13.45;;
51901;SDS011;37929;53.218;6.548;2023-02-13T17:03:27;24.90;;;13.35;;
51901;SDS011;37929;53.218;6.548;2023-02-13T17:05:55;23.33;;;13.25;;
51901;SDS011;37929;53.218;6.548;2023-02-13T17:08:26;25.17;;;13.07;;
51901;SDS011;37929;53.218;6.548;2023-02-13T17:11:03;26.13;;;13.93;;
51901;SDS011;37929;53.218;6.548;2023-02-13T17:13:31;25.00;;;13.07;;
51901;SDS011;37929;53.218;6.548;2023-02-13T17:15:59;26.67;;;14.10;;
51901;SDS011;37929;53.218;6.548;2023-02-13T17:18:25;27.33;;;14.38;;
51901;SDS011;37929;53.218;6.548;2023-02-13T17:20:51;30.10;;;14.27;;
51901;SDS011;37929;53.218;6.548;2023-02-13T17:23:22;26.92;;;13.75;;
51901;SDS011;37929;53.218;6.548;2023-02-13T17:25:49;24.33;;;13.20;;
51901;SDS011;37929;53.218;6.548;2023-02-13T17:28:26;23.23;;;13.13;;
51901;SDS011;37929;53.218;6.548;2023-02-13T17:30:55;25.73;;;13.63;;
51901;SDS011;37929;53.218;6.548;2023-02-13T17:33:29;26.58;;;14.00;;
51901;SDS011;37929;53.218;6.548;2023-02-13T17:35:58;24.73;;;12.85;;
51901;SDS011;37929;53.218;6.548;2023-02-13T17:38:24;28.90;;;13.57;;
51901;SDS011;37929;53.218;6.548;2023-02-13T17:40:49;27.85;;;14.10;;
51901;SDS011;37929;53.218;6.548;2023-02-13T17:43:16;25.30;;;13.25;;
51901;SDS011;37929;53.218;6.548;2023-02-13T17:45:44;25.60;;;13.55;;
51901;SDS011;37929;53.218;6.548;2023-02-13T17:48:10;25.42;;;14.00;;
51901;SDS011;37929;53.218;6.548;2023-02-13T17:50:36;24.00;;;12.88;;
51901;SDS011;37929;53.218;6.548;2023-02-13T17:53:07;23.65;;;12.82;;
51901;SDS011;37929;53.218;6.548;2023-02-13T17:56:02;32.55;;;14.95;;
51901;SDS011;37929;53.218;6.548;2023-02-13T17:58:28;26.25;;;13.27;;
51901;SDS011;37929;53.218;6.548;2023-02-13T18:00:54;43.45;;;21.15;;
51901;SDS011;37929;53.218;6.548;2023-02-13T18:03:20;55.80;;;26.10;;